createdAt,value
2016-03-16T00:00:03.853Z,0
2016-03-16T00:01:03.825Z,0
2016-03-16T00:02:03.781Z,0
2016-03-16T00:03:03.753Z,0
2016-03-16T00:04:03.723Z,0
2016-03-16T00:05:03.680Z,0
2016-03-16T00:06:03.650Z,0
2016-03-16T00:07:03.622Z,0
2016-03-16T00:08:03.577Z,0
2016-03-16T00:09:03.533Z,0
2016-03-16T00:10:03.521Z,0
2016-03-16T00:11:03.477Z,0
2016-03-16T00:12:03.433Z,0
2016-03-16T00:13:03.404Z,0
2016-03-16T00:14:03.360Z,0
2016-03-16T00:15:03.363Z,0
2016-03-16T00:16:03.303Z,0
2016-03-16T00:17:03.274Z,0
2016-03-16T00:18:03.246Z,0
2016-03-16T00:19:03.201Z,0
2016-03-16T00:20:03.148Z,0
2016-03-16T00:21:03.108Z,0
2016-03-16T00:22:03.082Z,0
2016-03-16T00:23:03.042Z,0
2016-03-16T00:24:02.986Z,0
2016-03-16T00:25:02.967Z,0
2016-03-16T00:26:02.887Z,0
2016-03-16T00:27:02.886Z,0
2016-03-16T00:28:02.822Z,0
2016-03-16T00:29:02.790Z,0
2016-03-16T00:30:02.762Z,0
2016-03-16T00:31:02.716Z,0
2016-03-16T00:32:02.670Z,0
2016-03-16T00:33:02.626Z,0
2016-03-16T00:34:02.641Z,0
2016-03-16T00:35:02.566Z,0
2016-03-16T00:36:02.568Z,0
2016-03-16T00:37:02.509Z,0
2016-03-16T00:38:02.479Z,0
2016-03-16T00:39:02.434Z,0
2016-03-16T00:40:02.405Z,0
2016-03-16T00:41:02.361Z,0
2016-03-16T00:42:02.348Z,0
2016-03-16T00:43:02.318Z,0
2016-03-16T00:44:02.275Z,0
2016-03-16T00:45:02.214Z,0
2016-03-16T00:46:02.186Z,0
2016-03-16T00:47:02.157Z,0
2016-03-16T00:48:02.113Z,0
2016-03-16T00:49:02.100Z,0
2016-03-16T00:50:02.056Z,0
2016-03-16T00:51:02.011Z,0
2016-03-16T00:52:01.983Z,0
2016-03-16T00:53:01.970Z,0
2016-03-16T00:54:01.910Z,0
2016-03-16T00:55:01.882Z,0
2016-03-16T00:56:01.853Z,0
2016-03-16T00:57:01.824Z,0
2016-03-16T00:58:01.812Z,0
2016-03-16T00:59:01.769Z,0
2016-03-16T01:00:01.724Z,0
2016-03-16T01:01:01.680Z,0
2016-03-16T01:02:01.635Z,0
2016-03-16T01:03:01.622Z,0
2016-03-16T01:04:01.594Z,0
2016-03-16T01:05:01.535Z,0
2016-03-16T01:06:01.521Z,0
2016-03-16T01:07:01.464Z,0
2016-03-16T01:08:01.452Z,0
2016-03-16T01:09:01.392Z,0
2016-03-16T01:10:01.394Z,0
2016-03-16T01:11:01.334Z,0
2016-03-16T01:12:01.306Z,0
2016-03-16T01:13:01.293Z,0
2016-03-16T01:14:01.222Z,0
2016-03-16T01:15:01.209Z,0
2016-03-16T01:16:01.165Z,0
2016-03-16T01:17:01.136Z,0
2016-03-16T01:18:01.093Z,0
2016-03-16T01:19:01.064Z,0
2016-03-16T01:20:01.004Z,0
2016-03-16T01:21:01.006Z,0
2016-03-16T01:22:00.948Z,0
2016-03-16T01:23:00.919Z,0
2016-03-16T01:24:00.906Z,0
2016-03-16T01:25:00.831Z,0
2016-03-16T01:26:00.895Z,0
2016-03-16T01:27:00.773Z,0
2016-03-16T01:28:00.761Z,0
2016-03-16T01:29:00.716Z,0
2016-03-16T01:30:00.688Z,0
2016-03-16T01:31:00.658Z,0
2016-03-16T01:32:00.599Z,0
2016-03-16T01:33:01.227Z,0
2016-03-16T01:34:00.574Z,0
2016-03-16T01:35:00.529Z,0
2016-03-16T01:36:00.485Z,0
2016-03-16T01:37:00.441Z,0
2016-03-16T01:38:00.413Z,0
2016-03-16T01:39:00.368Z,0
2016-03-16T01:40:00.340Z,0
2016-03-16T01:41:00.296Z,0
2016-03-16T01:42:00.251Z,0
2016-03-16T01:43:00.254Z,0
2016-03-16T01:44:00.193Z,0
2016-03-16T01:45:00.165Z,0
2016-03-16T01:46:00.121Z,0
2016-03-16T01:47:00.092Z,0
2016-03-16T01:48:00.064Z,0
2016-03-16T01:49:00.035Z,0
2016-03-16T01:50:00.007Z,0
2016-03-16T01:50:59.962Z,0
2016-03-16T01:52:00.090Z,0
2016-03-16T01:52:59.890Z,0
2016-03-16T01:53:59.862Z,0
2016-03-16T01:54:59.817Z,0
2016-03-16T01:55:59.773Z,0
2016-03-16T01:56:59.745Z,0
2016-03-16T01:57:59.732Z,0
2016-03-16T01:58:59.672Z,0
2016-03-16T01:59:59.644Z,0
2016-03-16T02:00:59.615Z,0
2016-03-16T02:01:59.570Z,0
2016-03-16T02:02:59.558Z,0
2016-03-16T02:03:59.545Z,0
2016-03-16T02:04:59.485Z,0
2016-03-16T02:05:59.441Z,0
2016-03-16T02:06:59.412Z,0
2016-03-16T02:07:59.367Z,0
2016-03-16T02:08:59.339Z,0
2016-03-16T02:09:59.342Z,0
2016-03-16T02:10:59.265Z,0
2016-03-16T02:11:59.268Z,0
2016-03-16T02:12:59.209Z,0
2016-03-16T02:13:59.196Z,0
2016-03-16T02:14:59.151Z,0
2016-03-16T02:15:59.122Z,0
2016-03-16T02:16:59.095Z,0
2016-03-16T02:17:59.034Z,0
2016-03-16T02:18:59.022Z,0
2016-03-16T02:19:58.961Z,0
2016-03-16T02:20:58.935Z,0
2016-03-16T02:21:58.906Z,0
2016-03-16T02:22:58.877Z,0
2016-03-16T02:23:58.833Z,0
2016-03-16T02:24:58.804Z,0
2016-03-16T02:25:58.776Z,0
2016-03-16T02:26:58.731Z,0
2016-03-16T02:27:58.703Z,0
2016-03-16T02:28:58.658Z,0
2016-03-16T02:29:58.615Z,0
2016-03-16T02:30:58.602Z,0
2016-03-16T02:31:58.558Z,0
2016-03-16T02:32:58.545Z,0
2016-03-16T02:33:58.485Z,0
2016-03-16T02:34:58.472Z,0
2016-03-16T02:35:58.428Z,0
2016-03-16T02:36:58.384Z,0
2016-03-16T02:37:58.386Z,0
2016-03-16T02:38:58.327Z,0
2016-03-16T02:39:58.313Z,0
2016-03-16T02:40:58.254Z,0
2016-03-16T02:41:58.241Z,0
2016-03-16T02:42:58.181Z,0
2016-03-16T02:43:58.152Z,0
2016-03-16T02:44:58.140Z,0
2016-03-16T02:45:58.095Z,0
2016-03-16T02:46:58.098Z,0
2016-03-16T02:47:58.022Z,0
2016-03-16T02:48:57.994Z,0
2016-03-16T02:49:57.949Z,0
2016-03-16T02:50:57.937Z,0
2016-03-16T02:51:57.876Z,0
2016-03-16T02:52:57.864Z,0
2016-03-16T02:53:57.820Z,0
2016-03-16T02:54:57.792Z,0
2016-03-16T02:55:57.732Z,0
2016-03-16T02:56:57.718Z,0
2016-03-16T02:57:57.706Z,0
2016-03-16T02:58:57.645Z,0
2016-03-16T02:59:57.633Z,0
2016-03-16T03:00:57.573Z,0
2016-03-16T03:01:57.592Z,0
2016-03-16T03:02:57.500Z,0
2016-03-16T03:03:57.502Z,0
2016-03-16T03:04:57.458Z,0
2016-03-16T03:05:57.414Z,0
2016-03-16T03:06:57.417Z,0
2016-03-16T03:07:57.326Z,0
2016-03-16T03:08:57.329Z,0
2016-03-16T03:09:57.285Z,0
2016-03-16T03:10:57.256Z,0
2016-03-16T03:11:57.212Z,0
2016-03-16T03:12:57.199Z,0
2016-03-16T03:13:57.139Z,0
2016-03-16T03:14:57.127Z,0
2016-03-16T03:15:57.082Z,0
2016-03-16T03:16:57.053Z,0
2016-03-16T03:17:56.854Z,0
2016-03-16T03:18:56.981Z,0
2016-03-16T03:19:56.937Z,0
2016-03-16T03:20:56.924Z,0
2016-03-16T03:21:56.879Z,0
2016-03-16T03:22:56.835Z,0
2016-03-16T03:23:56.838Z,0
2016-03-16T03:24:56.762Z,0
2016-03-16T03:25:56.781Z,0
2016-03-16T03:26:56.706Z,0
2016-03-16T03:27:56.708Z,0
2016-03-16T03:28:56.648Z,0
2016-03-16T03:29:56.589Z,0
2016-03-16T03:30:56.560Z,0
2016-03-16T03:31:56.531Z,0
2016-03-16T03:32:56.519Z,0
2016-03-16T03:33:56.490Z,0
2016-03-16T03:34:56.446Z,0
2016-03-16T03:35:56.417Z,0
2016-03-16T03:36:56.357Z,0
2016-03-16T03:37:56.329Z,0
2016-03-16T03:38:56.300Z,0
2016-03-16T03:39:56.255Z,0
2016-03-16T03:40:56.243Z,0
2016-03-16T03:41:56.183Z,0
2016-03-16T03:42:56.171Z,0
2016-03-16T03:43:56.126Z,0
2016-03-16T03:44:56.113Z,0
2016-03-16T03:45:56.069Z,0
2016-03-16T03:46:56.025Z,0
2016-03-16T03:47:56.012Z,0
2016-03-16T03:48:55.968Z,0
2016-03-16T03:49:55.924Z,0
2016-03-16T03:50:55.895Z,0
2016-03-16T03:51:55.866Z,0
2016-03-16T03:52:55.822Z,0
2016-03-16T03:53:55.793Z,0
2016-03-16T03:54:55.764Z,0
2016-03-16T03:55:55.736Z,0
2016-03-16T03:56:55.692Z,0
2016-03-16T03:57:55.664Z,0
2016-03-16T03:58:55.620Z,0
2016-03-16T03:59:55.591Z,0
2016-03-16T04:00:55.547Z,0
2016-03-16T04:01:55.518Z,0
2016-03-16T04:03:36.039Z,0
2016-03-16T04:03:55.461Z,0
2016-03-16T04:04:55.275Z,0
2016-03-16T04:05:55.388Z,0
2016-03-16T04:06:55.360Z,0
2016-03-16T04:07:55.330Z,0
2016-03-16T04:08:55.286Z,0
2016-03-16T04:09:55.274Z,0
2016-03-16T04:10:55.230Z,0
2016-03-16T04:11:55.202Z,0
2016-03-16T04:12:55.157Z,0
2016-03-16T04:13:55.129Z,0
2016-03-16T04:14:55.084Z,0
2016-03-16T04:15:55.055Z,0
2016-03-16T04:16:55.012Z,0
2016-03-16T04:17:54.982Z,0
2016-03-16T04:18:54.954Z,0
2016-03-16T04:19:54.926Z,0
2016-03-16T04:20:54.882Z,0
2016-03-16T04:21:54.868Z,0
2016-03-16T04:22:54.825Z,0
2016-03-16T04:23:54.796Z,0
2016-03-16T04:24:54.767Z,0
2016-03-16T04:25:54.739Z,0
2016-03-16T04:26:54.695Z,0
2016-03-16T04:27:54.667Z,0
2016-03-16T04:28:54.606Z,0
2016-03-16T04:29:54.578Z,0
2016-03-16T04:30:54.550Z,0
2016-03-16T04:31:54.521Z,0
2016-03-16T04:32:54.492Z,0
2016-03-16T04:33:54.308Z,0
2016-03-16T04:34:54.451Z,0
2016-03-16T04:35:54.406Z,0
2016-03-16T04:36:54.362Z,0
2016-03-16T04:37:54.333Z,0
2016-03-16T04:38:54.290Z,0
2016-03-16T04:39:54.245Z,0
2016-03-16T04:40:54.217Z,0
2016-03-16T04:41:54.204Z,0
2016-03-16T04:42:54.144Z,0
2016-03-16T04:43:54.147Z,0
2016-03-16T04:44:54.088Z,0
2016-03-16T04:45:54.043Z,0
2016-03-16T04:46:54.030Z,0
2016-03-16T04:47:54.016Z,0
2016-03-16T04:48:53.941Z,0
2016-03-16T04:49:53.913Z,0
2016-03-16T04:50:53.885Z,0
2016-03-16T04:51:53.856Z,0
2016-03-16T04:52:53.827Z,0
2016-03-16T04:53:53.782Z,0
2016-03-16T04:54:53.754Z,0
2016-03-16T04:55:53.726Z,0
2016-03-16T04:56:53.682Z,0
2016-03-16T04:57:53.653Z,0
2016-03-16T04:58:53.500Z,0
2016-03-16T04:59:53.581Z,0
2016-03-16T05:00:53.551Z,0
2016-03-16T05:01:53.508Z,0
2016-03-16T05:02:53.511Z,0
2016-03-16T05:03:53.435Z,0
2016-03-16T05:04:53.453Z,0
2016-03-16T05:05:53.394Z,0
2016-03-16T05:06:53.480Z,0
2016-03-16T05:07:53.326Z,4
2016-03-16T05:08:53.282Z,4
2016-03-16T05:09:53.254Z,4
2016-03-16T05:10:53.225Z,0
2016-03-16T05:11:53.181Z,0
2016-03-16T05:12:53.167Z,4
2016-03-16T05:13:52.999Z,4
2016-03-16T05:14:53.080Z,4
2016-03-16T05:15:53.067Z,4
2016-03-16T05:16:53.039Z,4
2016-03-16T05:17:52.994Z,8
2016-03-16T05:18:52.934Z,4
2016-03-16T05:19:52.905Z,8
2016-03-16T05:20:52.908Z,8
2016-03-16T05:21:52.849Z,8
2016-03-16T05:22:52.851Z,12
2016-03-16T05:23:52.776Z,12
2016-03-16T05:24:52.763Z,12
2016-03-16T05:25:52.703Z,16
2016-03-16T05:26:52.691Z,20
2016-03-16T05:27:52.646Z,24
2016-03-16T05:28:52.665Z,28
2016-03-16T05:29:52.432Z,28
2016-03-16T05:30:52.560Z,32
2016-03-16T05:31:52.532Z,36
2016-03-16T05:32:52.503Z,48
2016-03-16T05:33:52.459Z,52
2016-03-16T05:34:52.431Z,60
2016-03-16T05:35:52.370Z,68
2016-03-16T05:36:52.342Z,76
2016-03-16T05:37:52.314Z,88
2016-03-16T05:38:52.285Z,96
2016-03-16T05:39:52.257Z,96
2016-03-16T05:40:52.228Z,104
2016-03-16T05:41:52.184Z,120
2016-03-16T05:42:52.139Z,128
2016-03-16T05:43:52.126Z,140
2016-03-16T05:44:52.098Z,156
2016-03-16T05:45:52.053Z,168
2016-03-16T05:46:52.009Z,180
2016-03-16T05:47:51.996Z,204
2016-03-16T05:48:51.952Z,228
2016-03-16T05:49:51.939Z,240
2016-03-16T05:50:51.880Z,240
2016-03-16T05:51:51.852Z,248
2016-03-16T05:52:51.822Z,264
2016-03-16T05:53:51.794Z,272
2016-03-16T05:54:51.749Z,292
2016-03-16T05:55:51.721Z,312
2016-03-16T05:56:51.677Z,316
2016-03-16T05:57:51.649Z,320
2016-03-16T05:58:51.652Z,348
2016-03-16T05:59:51.577Z,392
2016-03-16T06:00:51.563Z,440
2016-03-16T06:01:51.504Z,472
2016-03-16T06:02:51.507Z,512
2016-03-16T06:03:51.446Z,556
2016-03-16T06:04:51.418Z,592
2016-03-16T06:05:51.373Z,636
2016-03-16T06:06:51.360Z,648
2016-03-16T06:07:51.300Z,644
2016-03-16T06:08:51.287Z,644
2016-03-16T06:09:51.228Z,688
2016-03-16T06:10:51.214Z,780
2016-03-16T06:11:51.171Z,880
2016-03-16T06:12:51.158Z,960
2016-03-16T06:13:51.114Z,1052
2016-03-16T06:14:51.085Z,1156
2016-03-16T06:15:51.056Z,1244
2016-03-16T06:16:51.012Z,1288
2016-03-16T06:17:50.999Z,1264
2016-03-16T06:18:50.939Z,1304
2016-03-16T06:19:50.911Z,1304
2016-03-16T06:20:50.882Z,1384
2016-03-16T06:21:50.838Z,1364
2016-03-16T06:22:50.669Z,1424
2016-03-16T06:23:50.765Z,1488
2016-03-16T06:24:50.784Z,1524
2016-03-16T06:25:50.724Z,1628
2016-03-16T06:26:50.696Z,1728
2016-03-16T06:27:50.652Z,1816
2016-03-16T06:28:50.623Z,2104
2016-03-16T06:29:50.578Z,2208
2016-03-16T06:30:50.565Z,2152
2016-03-16T06:31:50.521Z,2144
2016-03-16T06:32:50.493Z,2404
2016-03-16T06:33:50.433Z,2780
2016-03-16T06:34:50.467Z,2628
2016-03-16T06:35:50.376Z,2496
2016-03-16T06:36:50.347Z,2624
2016-03-16T06:37:50.304Z,3048
2016-03-16T06:38:50.274Z,3288
2016-03-16T06:39:50.276Z,3100
2016-03-16T06:40:50.201Z,2940
2016-03-16T06:41:50.204Z,2872
2016-03-16T06:42:50.144Z,3028
2016-03-16T06:43:50.132Z,3724
2016-03-16T06:44:50.087Z,4684
2016-03-16T06:45:50.090Z,5112
2016-03-16T06:46:50.015Z,5028
2016-03-16T06:47:50.017Z,4976
2016-03-16T06:48:49.942Z,5680
2016-03-16T06:49:49.928Z,4860
2016-03-16T06:50:49.869Z,3984
2016-03-16T06:51:49.856Z,3676
2016-03-16T06:52:49.812Z,3496
2016-03-16T06:53:49.800Z,3500
2016-03-16T06:54:49.755Z,3540
2016-03-16T06:55:49.727Z,3528
2016-03-16T06:56:49.682Z,3656
2016-03-16T06:57:49.654Z,5300
2016-03-16T06:58:49.640Z,6912
2016-03-16T06:59:49.440Z,6452
2016-03-16T07:00:49.583Z,6064
2016-03-16T07:01:49.540Z,6836
2016-03-16T07:02:49.496Z,6252
2016-03-16T07:03:49.452Z,5408
2016-03-16T07:04:49.438Z,4956
2016-03-16T07:05:49.394Z,4772
2016-03-16T07:06:49.382Z,4788
2016-03-16T07:07:49.337Z,4956
2016-03-16T07:08:49.309Z,5040
2016-03-16T07:09:49.279Z,5140
2016-03-16T07:10:49.220Z,5072
2016-03-16T07:11:49.237Z,4980
2016-03-16T07:12:49.162Z,4968
2016-03-16T07:13:49.165Z,4976
2016-03-16T07:14:49.105Z,4972
2016-03-16T07:15:49.061Z,4884
2016-03-16T07:16:49.033Z,4784
2016-03-16T07:17:49.004Z,4744
2016-03-16T07:18:49.007Z,4760
2016-03-16T07:19:48.947Z,4788
2016-03-16T07:20:48.919Z,4824
2016-03-16T07:21:48.858Z,4804
2016-03-16T07:22:48.846Z,4812
2016-03-16T07:23:48.802Z,4812
2016-03-16T07:24:48.773Z,4836
2016-03-16T07:25:53.839Z,4868
2016-03-16T07:26:53.639Z,4876
2016-03-16T07:27:53.844Z,4876
2016-03-16T07:28:48.644Z,4860
2016-03-16T07:29:48.615Z,4872
2016-03-16T07:30:48.586Z,4884
2016-03-16T07:31:48.557Z,4860
2016-03-16T07:32:48.513Z,4860
2016-03-16T07:33:48.485Z,4884
2016-03-16T07:34:48.440Z,4912
2016-03-16T07:35:48.412Z,4932
2016-03-16T07:36:51.555Z,4948
2016-03-16T07:37:54.137Z,4960
2016-03-16T07:38:53.421Z,4992
2016-03-16T07:39:48.298Z,5016
2016-03-16T07:40:48.254Z,5092
2016-03-16T07:41:48.240Z,5116
2016-03-16T07:42:48.181Z,5076
2016-03-16T07:43:48.167Z,5132
2016-03-16T07:44:48.108Z,5136
2016-03-16T07:45:48.111Z,5152
2016-03-16T07:46:48.050Z,5156
2016-03-16T07:47:48.053Z,5188
2016-03-16T07:48:47.994Z,5168
2016-03-16T07:49:47.997Z,5196
2016-03-16T07:50:47.937Z,5204
2016-03-16T07:51:47.908Z,5280
2016-03-16T07:52:47.880Z,5292
2016-03-16T07:53:47.819Z,5320
2016-03-16T07:54:47.822Z,5368
2016-03-16T07:55:47.763Z,5392
2016-03-16T07:56:47.766Z,5360
2016-03-16T07:57:47.706Z,5528
2016-03-16T07:58:47.709Z,5576
2016-03-16T07:59:47.633Z,5672
2016-03-16T08:00:47.620Z,5676
2016-03-16T08:01:47.576Z,5784
2016-03-16T08:02:47.532Z,5916
2016-03-16T08:03:47.518Z,5732
2016-03-16T08:04:47.474Z,5912
2016-03-16T08:05:47.446Z,5748
2016-03-16T08:06:47.414Z,6044
2016-03-16T08:07:47.401Z,6200
2016-03-16T08:08:47.356Z,8600
2016-03-16T08:09:47.359Z,9472
2016-03-16T08:10:47.268Z,7680
2016-03-16T08:11:47.271Z,6604
2016-03-16T08:12:47.211Z,6584
2016-03-16T08:13:47.197Z,6628
2016-03-16T08:14:47.154Z,7260
2016-03-16T08:15:47.141Z,6656
2016-03-16T08:16:47.081Z,6984
2016-03-16T08:17:47.068Z,7588
2016-03-16T08:18:47.008Z,7112
2016-03-16T08:19:47.011Z,7352
2016-03-16T08:20:46.967Z,7564
2016-03-16T08:21:46.782Z,9960
2016-03-16T08:22:46.925Z,8204
2016-03-16T08:23:46.865Z,8176
2016-03-16T08:24:46.852Z,9188
2016-03-16T08:25:46.824Z,9380
2016-03-16T08:26:46.765Z,8632
2016-03-16T08:27:46.751Z,7112
2016-03-16T08:28:46.707Z,8796
2016-03-16T08:29:46.679Z,10628
2016-03-16T08:30:46.650Z,11856
2016-03-16T08:31:46.621Z,13656
2016-03-16T08:32:46.593Z,9368
2016-03-16T08:33:46.548Z,9080
2016-03-16T08:34:46.520Z,10640
2016-03-16T08:35:46.492Z,13184
2016-03-16T08:36:46.447Z,13216
2016-03-16T08:37:46.450Z,10996
2016-03-16T08:38:46.390Z,11596
2016-03-16T08:39:46.361Z,15312
2016-03-16T08:40:46.349Z,13180
2016-03-16T08:41:46.304Z,11468
2016-03-16T08:42:46.275Z,10040
2016-03-16T08:43:46.232Z,15500
2016-03-16T08:44:46.219Z,15600
2016-03-16T08:45:46.190Z,12140
2016-03-16T08:46:46.147Z,12572
2016-03-16T08:47:46.133Z,11508
2016-03-16T08:48:46.089Z,13712
2016-03-16T08:49:46.060Z,14436
2016-03-16T08:50:46.047Z,13404
2016-03-16T08:51:46.004Z,10688
2016-03-16T08:52:45.974Z,11368
2016-03-16T08:53:45.946Z,10244
2016-03-16T08:54:45.902Z,12188
2016-03-16T08:55:45.905Z,11692
2016-03-16T08:56:45.860Z,12928
2016-03-16T08:57:45.832Z,12472
2016-03-16T08:58:45.788Z,12100
2016-03-16T08:59:45.759Z,11088
2016-03-16T09:00:45.731Z,12980
2016-03-16T09:01:45.702Z,15420
2016-03-16T09:02:45.673Z,12904
2016-03-16T09:03:45.629Z,11228
2016-03-16T09:04:45.616Z,13428
2016-03-16T09:05:45.573Z,11424
2016-03-16T09:06:45.595Z,9976
2016-03-16T09:07:45.520Z,9684
2016-03-16T09:08:45.492Z,8852
2016-03-16T09:09:45.494Z,11316
2016-03-16T09:10:45.419Z,12408
2016-03-16T09:11:45.421Z,9252
2016-03-16T09:12:45.377Z,8600
2016-03-16T09:13:45.349Z,10128
2016-03-16T09:14:45.444Z,9148
2016-03-16T09:15:45.291Z,9432
2016-03-16T09:16:45.247Z,10124
2016-03-16T09:17:45.234Z,12296
2016-03-16T09:18:45.205Z,10920
2016-03-16T09:19:45.145Z,10480
2016-03-16T09:20:45.151Z,11308
2016-03-16T09:21:45.091Z,12280
2016-03-16T09:22:45.079Z,12428
2016-03-16T09:23:45.051Z,10800
2016-03-16T09:24:45.018Z,9928
2016-03-16T09:25:45.107Z,9048
2016-03-16T09:26:44.959Z,8348
2016-03-16T09:27:44.768Z,7908
2016-03-16T09:28:44.882Z,6980
2016-03-16T09:29:45.681Z,6576
2016-03-16T09:30:46.558Z,7344
2016-03-16T09:31:44.730Z,8432
2016-03-16T09:32:44.681Z,7376
2016-03-16T09:33:44.648Z,7116
2016-03-16T09:34:44.615Z,8672
2016-03-16T09:35:44.582Z,9756
2016-03-16T09:36:44.552Z,10108
2016-03-16T09:37:44.521Z,10860
2016-03-16T09:38:44.506Z,11436
2016-03-16T09:39:44.444Z,11720
2016-03-16T09:40:44.429Z,11364
2016-03-16T09:41:44.385Z,11184
2016-03-16T09:42:44.387Z,11284
2016-03-16T09:43:44.358Z,10340
2016-03-16T09:44:44.312Z,9152
2016-03-16T09:45:44.315Z,9432
2016-03-16T09:46:44.224Z,8984
2016-03-16T09:47:44.226Z,9168
2016-03-16T09:48:44.167Z,9696
2016-03-16T09:49:44.170Z,11904
2016-03-16T09:50:44.109Z,12884
2016-03-16T09:51:44.097Z,15256
2016-03-16T09:52:44.052Z,15672
2016-03-16T09:53:44.039Z,12544
2016-03-16T09:54:43.995Z,10912
2016-03-16T09:55:43.982Z,12876
2016-03-16T09:56:43.923Z,14720
2016-03-16T09:57:43.909Z,12064
2016-03-16T09:58:43.897Z,8972
2016-03-16T09:59:43.836Z,9136
2016-03-16T10:00:43.824Z,8952
2016-03-16T10:01:43.779Z,9016
2016-03-16T10:02:43.799Z,9124
2016-03-16T10:03:43.722Z,8664
2016-03-16T10:04:43.724Z,9784
2016-03-16T10:05:43.665Z,10752
2016-03-16T10:06:43.668Z,8404
2016-03-16T10:07:43.607Z,7100
2016-03-16T10:08:43.611Z,6640
2016-03-16T10:09:43.551Z,6552
2016-03-16T10:10:43.522Z,7572
2016-03-16T10:11:43.479Z,7640
2016-03-16T10:12:43.450Z,8852
2016-03-16T10:13:43.453Z,11596
2016-03-16T10:14:43.408Z,13160
2016-03-16T10:15:43.380Z,10816
2016-03-16T10:16:43.367Z,9616
2016-03-16T10:17:43.307Z,11836
2016-03-16T10:18:43.295Z,12492
2016-03-16T10:19:43.265Z,10736
2016-03-16T10:20:43.237Z,10640
2016-03-16T10:21:43.224Z,10728
2016-03-16T10:22:43.165Z,10732
2016-03-16T10:23:43.167Z,11724
2016-03-16T10:24:43.123Z,10020
2016-03-16T10:25:43.110Z,9696
2016-03-16T10:26:43.066Z,9536
2016-03-16T10:27:43.037Z,10060
2016-03-16T10:28:42.993Z,10248
2016-03-16T10:29:42.980Z,12300
2016-03-16T10:30:42.936Z,13444
2016-03-16T10:31:42.938Z,13432
2016-03-16T10:32:42.879Z,12816
2016-03-16T10:33:42.882Z,13408
2016-03-16T10:34:42.821Z,14780
2016-03-16T10:35:42.793Z,14648
2016-03-16T10:36:42.749Z,13720
2016-03-16T10:37:42.736Z,12124
2016-03-16T10:38:42.691Z,12784
2016-03-16T10:39:42.679Z,11896
2016-03-16T10:40:42.650Z,9608
2016-03-16T10:41:42.621Z,9320
2016-03-16T10:42:42.609Z,10284
2016-03-16T10:43:42.548Z,9388
2016-03-16T10:44:42.536Z,8112
2016-03-16T10:45:42.507Z,8628
2016-03-16T10:46:42.509Z,10752
2016-03-16T10:47:42.419Z,12204
2016-03-16T10:48:42.437Z,13780
2016-03-16T10:49:42.378Z,14260
2016-03-16T10:50:42.380Z,13484
2016-03-16T10:51:42.321Z,11900
2016-03-16T10:52:42.308Z,10212
2016-03-16T10:53:42.248Z,8452
2016-03-16T10:54:42.234Z,7784
2016-03-16T10:55:42.191Z,7956
2016-03-16T10:56:42.178Z,8216
2016-03-16T10:57:42.150Z,8040
2016-03-16T10:58:42.120Z,7488
2016-03-16T10:59:42.092Z,6324
2016-03-16T11:00:42.047Z,6100
2016-03-16T11:01:42.036Z,6484
2016-03-16T11:02:41.991Z,6908
2016-03-16T11:03:41.963Z,7604
2016-03-16T11:04:41.934Z,7412
2016-03-16T11:05:41.905Z,6892
2016-03-16T11:06:41.877Z,7056
2016-03-16T11:07:41.848Z,6644
2016-03-16T11:08:41.835Z,7080
2016-03-16T11:09:41.791Z,8932
2016-03-16T11:10:41.778Z,9976
2016-03-16T11:11:41.734Z,9144
2016-03-16T11:12:41.721Z,8172
2016-03-16T11:13:41.693Z,7608
2016-03-16T11:14:41.632Z,9956
2016-03-16T11:15:41.604Z,12632
2016-03-16T11:16:41.576Z,12904
2016-03-16T11:17:41.547Z,13576
2016-03-16T11:18:41.518Z,14776
2016-03-16T11:19:41.490Z,14784
2016-03-16T11:20:41.462Z,14436
2016-03-16T11:21:41.417Z,14980
2016-03-16T11:22:41.404Z,15248
2016-03-16T11:23:41.391Z,13152
2016-03-16T11:24:41.348Z,11820
2016-03-16T11:25:41.334Z,10672
2016-03-16T11:26:41.289Z,9564
2016-03-16T11:27:41.245Z,10140
2016-03-16T11:28:41.217Z,11132
2016-03-16T11:29:41.189Z,11708
2016-03-16T11:30:41.161Z,11892
2016-03-16T11:31:41.148Z,12336
2016-03-16T11:32:41.134Z,11668
2016-03-16T11:33:41.075Z,11692
2016-03-16T11:34:41.046Z,11908
2016-03-16T11:35:41.016Z,12296
2016-03-16T11:36:40.989Z,12444
2016-03-16T11:37:40.960Z,13104
2016-03-16T11:38:40.932Z,15196
2016-03-16T11:39:40.902Z,15136
2016-03-16T11:40:40.891Z,13020
2016-03-16T11:41:40.846Z,13576
2016-03-16T11:42:40.817Z,13040
2016-03-16T11:43:40.805Z,10872
2016-03-16T11:44:40.760Z,11792
2016-03-16T11:45:40.732Z,12004
2016-03-16T11:46:40.718Z,10200
2016-03-16T11:47:40.674Z,9088
2016-03-16T11:48:40.630Z,9900
2016-03-16T11:49:40.602Z,10316
2016-03-16T11:50:40.573Z,10396
2016-03-16T11:51:40.560Z,10664
2016-03-16T11:52:40.532Z,11288
2016-03-16T11:53:40.503Z,12288
2016-03-16T11:54:40.475Z,14148
2016-03-16T11:55:40.430Z,14472
2016-03-16T11:56:40.402Z,14748
2016-03-16T11:57:40.373Z,14220
2016-03-16T11:58:40.361Z,14056
2016-03-16T11:59:40.331Z,14228
2016-03-16T12:00:40.303Z,15000
2016-03-16T12:01:40.259Z,13712
2016-03-16T12:02:40.230Z,13228
2016-03-16T12:03:40.202Z,13212
2016-03-16T12:04:40.189Z,11772
2016-03-16T12:05:40.161Z,10684
2016-03-16T12:06:40.116Z,10412
2016-03-16T12:07:40.072Z,10412
2016-03-16T12:08:40.059Z,10768
2016-03-16T12:09:40.030Z,12572
2016-03-16T12:10:40.002Z,13432
2016-03-16T12:11:39.989Z,13180
2016-03-16T12:12:39.944Z,11420
2016-03-16T12:13:39.916Z,11352
2016-03-16T12:14:39.888Z,12864
2016-03-16T12:15:39.859Z,12352
2016-03-16T12:16:39.830Z,12576
2016-03-16T12:17:39.818Z,12280
2016-03-16T12:18:39.758Z,14784
2016-03-16T12:19:39.760Z,14020
2016-03-16T12:20:39.701Z,13276
2016-03-16T12:21:39.673Z,11104
2016-03-16T12:22:39.643Z,9696
2016-03-16T12:23:39.615Z,9500
2016-03-16T12:24:39.586Z,10196
2016-03-16T12:25:39.558Z,10236
2016-03-16T12:26:39.545Z,10608
2016-03-16T12:27:39.501Z,12184
2016-03-16T12:28:39.487Z,11340
2016-03-16T12:29:39.459Z,10704
2016-03-16T12:30:39.431Z,11668
2016-03-16T12:31:39.387Z,12148
2016-03-16T12:32:39.358Z,12288
2016-03-16T12:33:39.376Z,11684
2016-03-16T12:34:39.301Z,11388
2016-03-16T12:35:39.303Z,12644
2016-03-16T12:36:39.259Z,12632
2016-03-16T12:37:39.215Z,12096
2016-03-16T12:38:39.187Z,11928
2016-03-16T12:39:39.174Z,13232
2016-03-16T12:40:39.145Z,12764
2016-03-16T12:41:39.116Z,12376
2016-03-16T12:42:39.072Z,11412
2016-03-16T12:43:39.044Z,11020
2016-03-16T12:44:39.016Z,10496
2016-03-16T12:45:38.987Z,7848
2016-03-16T12:46:38.989Z,8784
2016-03-16T12:47:38.961Z,11528
2016-03-16T12:48:38.901Z,13800
2016-03-16T12:49:38.904Z,14356
2016-03-16T12:50:38.843Z,13356
2016-03-16T12:51:38.832Z,13312
2016-03-16T12:52:38.818Z,14636
2016-03-16T12:53:38.774Z,14276
2016-03-16T12:54:38.745Z,13048
2016-03-16T12:55:38.732Z,13216
2016-03-16T12:56:38.673Z,12668
2016-03-16T12:57:38.645Z,12192
2016-03-16T12:58:38.647Z,11920
2016-03-16T12:59:38.603Z,12528
2016-03-16T13:00:38.559Z,12348
2016-03-16T13:01:38.546Z,12016
2016-03-16T13:02:38.501Z,12488
2016-03-16T13:03:38.503Z,12612
2016-03-16T13:04:39.414Z,12388
2016-03-16T13:05:38.447Z,11252
2016-03-16T13:06:38.387Z,11272
2016-03-16T13:07:38.389Z,10564
2016-03-16T13:08:38.345Z,9892
2016-03-16T13:09:38.302Z,8264
2016-03-16T13:10:38.288Z,7976
2016-03-16T13:11:38.260Z,7884
2016-03-16T13:12:38.215Z,7304
2016-03-16T13:13:38.188Z,7604
2016-03-16T13:14:38.174Z,8692
2016-03-16T13:15:38.130Z,10192
2016-03-16T13:16:38.132Z,8592
2016-03-16T13:17:38.074Z,8368
2016-03-16T13:18:38.060Z,7960
2016-03-16T13:19:38.031Z,6656
2016-03-16T13:20:38.002Z,5848
2016-03-16T13:21:37.973Z,5284
2016-03-16T13:22:37.946Z,5128
2016-03-16T13:23:37.901Z,5044
2016-03-16T13:24:37.888Z,4632
2016-03-16T13:25:37.859Z,4128
2016-03-16T13:26:37.832Z,4044
2016-03-16T13:27:37.787Z,4088
2016-03-16T13:28:37.773Z,4056
2016-03-16T13:29:37.730Z,4136
2016-03-16T13:30:37.734Z,4360
2016-03-16T13:31:37.673Z,4360
2016-03-16T13:32:37.659Z,4704
2016-03-16T13:33:37.616Z,5916
2016-03-16T13:34:37.602Z,6068
2016-03-16T13:35:37.559Z,4588
2016-03-16T13:36:37.545Z,4740
2016-03-16T13:37:37.502Z,5440
2016-03-16T13:38:37.488Z,6104
2016-03-16T13:39:37.445Z,6984
2016-03-16T13:40:37.447Z,8308
2016-03-16T13:41:37.371Z,10052
2016-03-16T13:42:37.374Z,11536
2016-03-16T13:43:37.314Z,12452
2016-03-16T13:44:37.317Z,13608
2016-03-16T13:45:37.288Z,12796